Time;durP1;ratioP1;P1;durP2;ratioP2;P2;SDS_P1;SDS_P2;PMS_P1;PMS_P2;Temp;Humidity;BMP_temperature;BMP_pressure;BME280_temperature;BME280_humidity;BME280_pressure;Samples;Min_cycle;Max_cycle;Signal;HPM_P1;HPM_P2
2021/06/05 00:01:51;;;;;;;;;13.00;13.00;;;;;17.00;81.70;101366.09;5051306;28;8894;-77
2021/06/05 00:04:46;;;;;;;;;10.00;10.00;;;;;16.94;81.29;101366.41;5053325;28;8931;-77
2021/06/05 00:07:42;;;;;;;;;15.25;15.25;;;;;16.82;81.62;101371.22;5053091;28;8979;-77
2021/06/05 00:10:43;;;;;;;;;12.00;12.00;;;;;16.85;81.55;101359.31;5053155;28;8970;-77
2021/06/05 00:13:42;;;;;;;;;9.00;9.00;;;;;16.71;81.97;101365.31;5049661;28;8924;-78
2021/06/05 00:16:46;;;;;;;;;9.00;9.00;;;;;16.80;81.63;101356.81;5045378;28;8844;-77
2021/06/05 00:19:42;;;;;;;;;11.50;11.50;;;;;16.88;81.42;101367.00;5057760;28;8861;-78
2021/06/05 00:22:37;;;;;;;;;11.25;11.25;;;;;16.72;81.93;101355.00;5071323;28;8844;-78
2021/06/05 00:25:12;;;;;;;;;8.75;8.75;;;;;16.72;81.80;101358.59;5072118;28;9720;-78
2021/06/05 00:28:08;;;;;;;;;12.00;12.00;;;;;16.65;82.28;101350.78;5057027;28;8860;-78
2021/06/05 00:31:04;;;;;;;;;10.25;10.25;;;;;16.62;82.09;101348.69;5054731;28;8832;-78
2021/06/05 00:33:37;;;;;;;;;9.00;9.00;;;;;16.68;81.94;101358.44;5053689;28;8941;-77
2021/06/05 00:36:07;;;;;;;;;9.25;9.25;;;;;16.59;82.04;101355.00;5053779;28;8844;-77
2021/06/05 00:39:04;;;;;;;;;7.50;7.50;;;;;16.57;81.90;101351.75;5052765;28;8847;-77
2021/06/05 00:42:00;;;;;;;;;11.25;11.25;;;;;16.60;81.83;101350.22;5052597;28;8977;-77
2021/06/05 00:44:56;;;;;;;;;10.50;10.50;;;;;16.60;81.88;101348.25;5052331;28;8843;-77
2021/06/05 00:47:52;;;;;;;;;8.25;8.25;;;;;16.63;81.77;101343.91;5052069;28;8831;-78
2021/06/05 00:50:50;;;;;;;;;9.50;9.50;;;;;16.56;81.83;101340.91;5040150;28;8923;-77
2021/06/05 00:53:46;;;;;;;;;11.00;11.00;;;;;16.70;81.52;101344.16;5052185;28;8847;-77
2021/06/05 00:56:44;;;;;;;;;10.00;10.00;;;;;16.67;81.56;101340.06;5052478;28;8836;-77
2021/06/05 00:59:40;;;;;;;;;9.75;9.75;;;;;16.61;81.54;101340.69;5053733;28;8986;-77
2021/06/05 01:02:35;;;;;;;;;14.75;10.25;;;;;16.65;81.15;101338.81;5039012;28;8839;-77
2021/06/05 01:05:33;;;;;;;;;10.50;10.50;;;;;16.62;81.42;101334.72;5038941;28;8816;-77
2021/06/05 01:08:45;;;;;;;;;8.00;8.00;;;;;16.69;81.52;101336.94;5052326;28;9655;-78
2021/06/05 01:11:46;;;;;;;;;8.75;8.75;;;;;16.63;81.71;101335.53;5038793;28;8832;-77
2021/06/05 01:14:51;;;;;;;;;9.75;9.75;;;;;16.58;82.05;101331.03;5051932;28;8840;-77
2021/06/05 01:17:53;;;;;;;;;7.50;7.50;;;;;16.75;81.96;101337.50;5065534;28;8854;-77
2021/06/05 01:21:24;;;;;;;;;10.00;10.00;;;;;16.78;81.92;101329.22;5069197;28;8840;-77
2021/06/05 01:24:36;;;;;;;;;8.75;8.75;;;;;16.74;82.31;101333.91;5051788;28;8852;-77
2021/06/05 01:27:39;;;;;;;;;10.50;10.50;;;;;16.73;82.16;101334.25;5052064;28;8848;-77
2021/06/05 01:30:41;;;;;;;;;9.25;9.25;;;;;16.73;82.04;101331.47;5051830;28;8828;-77
2021/06/05 01:33:41;;;;;;;;;11.75;11.75;;;;;16.60;82.88;101323.13;5051750;28;8888;-77
2021/06/05 01:36:43;;;;;;;;;8.50;8.50;;;;;16.80;82.24;101317.69;5051875;28;8863;-77
2021/06/05 01:39:42;;;;;;;;;10.25;10.25;;;;;16.71;82.69;101329.00;5051753;28;8839;-77
2021/06/05 01:42:40;;;;;;;;;8.00;8.00;;;;;16.75;82.78;101324.34;5051854;28;8824;-77
2021/06/05 01:45:39;;;;;;;;;11.25;11.25;;;;;16.77;83.01;101315.59;5038358;28;8851;-77
2021/06/05 01:48:35;;;;;;;;;13.00;13.00;;;;;16.85;82.64;101317.41;5038367;28;8844;-77
2021/06/05 01:51:31;;;;;;;;;14.25;14.25;;;;;16.80;83.23;101312.94;5037939;28;8876;-77
2021/06/05 01:54:10;;;;;;;;;11.75;10.50;;;;;16.85;82.91;101321.03;5052599;28;8844;-77
2021/06/05 01:57:10;;;;;;;;;12.50;12.50;;;;;16.85;83.13;101320.22;5051113;28;8864;-77
2021/06/05 02:00:14;;;;;;;;;12.75;12.75;;;;;16.91;83.17;101316.81;5021497;28;8888;-77
2021/06/05 02:03:13;;;;;;;;;13.25;13.00;;;;;16.87;83.00;101313.13;5035447;28;8903;-77
2021/06/05 02:06:11;;;;;;;;;6.00;6.00;;;;;16.90;82.87;101320.78;5035585;28;8830;-77
2021/06/05 02:09:10;;;;;;;;;9.25;9.25;;;;;17.04;82.57;101316.72;5036349;28;8898;-77
2021/06/05 02:12:16;;;;;;;;;11.75;11.75;;;;;17.02;82.54;101316.25;5055434;28;8824;-77
2021/06/05 02:15:23;;;;;;;;;10.00;10.00;;;;;17.02;82.75;101316.25;5055397;28;8852;-77
2021/06/05 02:18:27;;;;;;;;;11.50;11.50;;;;;17.11;82.49;101314.13;5042198;28;8861;-77
2021/06/05 02:21:10;;;;;;;;;13.25;13.25;;;;;17.19;82.32;101308.34;5036014;28;8956;-77
2021/06/05 02:24:12;;;;;;;;;13.75;13.75;;;;;17.13;82.51;101314.56;5041796;28;9715;-77
2021/06/05 02:27:09;;;;;;;;;12.25;12.25;;;;;17.24;82.22;101313.66;5055371;28;9597;-77
2021/06/05 02:30:08;;;;;;;;;14.75;14.00;;;;;17.22;82.12;101304.00;5056219;28;8839;-77
2021/06/05 02:33:05;;;;;;;;;13.00;13.00;;;;;17.29;81.64;101311.78;5055286;28;8828;-77
2021/06/05 02:36:10;;;;;;;;;9.50;9.50;;;;;17.33;81.41;101307.06;5043813;28;8836;-77
2021/06/05 02:39:07;;;;;;;;;11.25;11.25;;;;;17.30;81.39;101311.41;5041684;28;8951;-77
2021/06/05 02:42:12;;;;;;;;;14.75;14.75;;;;;17.28;81.72;101305.38;5055351;28;9615;-77
2021/06/05 02:45:20;;;;;;;;;13.75;13.50;;;;;17.45;81.28;101312.56;5055178;28;8840;-78
2021/06/05 02:47:58;;;;;;;;;12.50;12.50;;;;;17.48;80.67;101311.81;5038222;28;8864;-77
2021/06/05 02:50:54;;;;;;;;;13.50;13.50;;;;;17.49;80.59;101310.69;5041443;28;9586;-77
2021/06/05 02:53:50;;;;;;;;;15.00;15.00;;;;;17.64;80.88;101311.84;5054547;28;8819;-78
2021/06/05 02:56:19;;;;;;;;;15.25;15.25;;;;;17.69;80.17;101312.34;5038494;28;8866;-78
2021/06/05 02:59:15;;;;;;;;;15.50;15.50;;;;;17.74;80.07;101305.69;5054942;28;8848;-78
2021/06/05 03:02:11;;;;;;;;;16.00;15.50;;;;;17.83;79.55;101316.69;5065417;28;8853;-80
2021/06/05 03:05:07;;;;;;;;;14.25;14.25;;;;;17.80;79.78;101320.22;5076346;28;8869;-78
2021/06/05 03:08:06;;;;;;;;;20.50;19.75;;;;;17.86;79.48;101316.75;5069391;28;8828;-78
2021/06/05 03:11:05;;;;;;;;;16.00;16.00;;;;;17.80;79.70;101323.00;5053937;28;8828;-78
2021/06/05 03:14:02;;;;;;;;;14.25;14.25;;;;;17.80;79.79;101317.41;5054449;28;8898;-78
2021/06/05 03:17:00;;;;;;;;;13.25;13.25;;;;;17.93;79.53;101322.50;5040957;28;8828;-78
2021/06/05 03:19:29;;;;;;;;;0.00;0.00;;;;;17.98;79.56;101327.00;5055461;28;8874;-78
2021/06/05 03:22:26;;;;;;;;;14.25;14.25;;;;;17.99;79.43;101323.84;5054193;28;8839;-78
2021/06/05 03:25:21;;;;;;;;;18.00;18.00;;;;;18.00;79.45;101324.66;5040851;28;8844;-78
2021/06/05 03:28:06;;;;;;;;;14.75;14.75;;;;;18.00;78.93;101335.84;5040300;28;8875;-78
2021/06/05 03:30:55;;;;;;;;;16.75;16.75;;;;;18.11;78.57;101327.69;5054781;28;8848;-77
2021/06/05 03:33:51;;;;;;;;;19.50;19.25;;;;;18.28;77.69;101336.47;5053678;28;8844;-78
2021/06/05 03:36:47;;;;;;;;;20.25;19.75;;;;;18.19;77.39;101335.88;5042164;28;8886;-78
2021/06/05 03:39:43;;;;;;;;;19.25;19.25;;;;;18.31;77.05;101330.13;5040527;28;8844;-77
2021/06/05 03:42:39;;;;;;;;;17.25;16.75;;;;;18.34;76.39;101323.81;5040358;28;8883;-76
2021/06/05 03:45:35;;;;;;;;;21.00;21.00;;;;;18.48;76.45;101331.69;5035319;28;8856;-79
2021/06/05 03:48:31;;;;;;;;;23.00;22.25;;;;;18.60;76.18;101334.31;5054101;28;8844;-79
2021/06/05 03:51:27;;;;;;;;;19.75;19.50;;;;;18.50;76.56;101328.53;5040380;28;8938;-78
2021/06/05 03:54:23;;;;;;;;;13.50;13.50;;;;;18.52;75.80;101323.34;5053459;28;8836;-79
2021/06/05 03:57:21;;;;;;;;;17.50;17.50;;;;;18.59;75.73;101327.09;5055218;28;8963;-79
2021/06/05 04:00:24;;;;;;;;;22.25;21.25;;;;;18.71;75.00;101323.38;5041774;28;8848;-78
2021/06/05 04:03:19;;;;;;;;;26.50;23.25;;;;;18.71;75.26;101320.56;5039891;28;8848;-78
2021/06/05 04:06:16;;;;;;;;;26.25;24.50;;;;;18.89;74.72;101326.50;5053415;28;8828;-78
2021/06/05 04:09:12;;;;;;;;;24.75;24.50;;;;;18.95;73.67;101339.03;5039884;28;8859;-76
2021/06/05 04:12:10;;;;;;;;;28.50;28.25;;;;;19.00;73.23;101330.28;5054787;28;9021;-76
2021/06/05 04:15:08;;;;;;;;;45.67;36.33;;;;;18.96;71.13;101342.66;5052566;28;8909;-76
2021/06/05 04:18:03;;;;;;;;;49.75;42.00;;;;;19.02;71.18;101339.16;5052972;28;9175;-76
2021/06/05 04:21:01;;;;;;;;;53.75;45.25;;;;;19.05;70.15;101326.38;5038974;28;9541;-76
2021/06/05 04:23:56;;;;;;;;;58.00;48.50;;;;;19.15;69.29;101328.56;5039382;28;9899;-77
2021/06/05 04:26:52;;;;;;;;;60.00;48.25;;;;;19.17;69.15;101331.81;5033768;28;9877;-77
2021/06/05 04:29:48;;;;;;;;;59.75;48.75;;;;;19.05;67.56;101332.00;5024123;28;9947;-76
2021/06/05 04:32:16;;;;;;;;;60.25;48.50;;;;;19.11;67.40;101327.69;5053877;28;10474;-76
2021/06/05 04:35:12;;;;;;;;;60.50;49.50;;;;;19.14;67.06;101333.34;5039262;28;9704;-76
2021/06/05 04:38:09;;;;;;;;;65.00;50.25;;;;;19.33;66.90;101337.28;5052357;28;9853;-77
2021/06/05 04:41:06;;;;;;;;;62.50;51.75;;;;;19.35;66.54;101340.53;5052431;28;9991;-76
2021/06/05 04:44:02;;;;;;;;;63.00;50.50;;;;;19.34;65.86;101336.09;5052322;28;10229;-77
2021/06/05 04:46:30;;;;;;;;;63.25;51.75;;;;;19.57;66.10;101342.53;5053705;28;10215;-76
2021/06/05 04:49:25;;;;;;;;;59.25;48.00;;;;;19.66;67.02;101337.47;5051257;28;10148;-76
2021/06/05 04:51:56;;;;;;;;;63.50;49.25;;;;;19.81;66.13;101340.47;5053516;28;9626;-76
2021/06/05 04:54:52;;;;;;;;;59.00;49.25;;;;;19.83;64.86;101330.50;5052427;28;9954;-76
2021/06/05 04:57:47;;;;;;;;;59.25;46.75;;;;;20.08;65.38;101336.44;5052524;28;9792;-76
2021/06/05 05:00:47;;;;;;;;;63.25;51.50;;;;;19.93;63.25;101329.81;5038598;28;9497;-75
2021/06/05 05:03:43;;;;;;;;;71.00;57.00;;;;;19.97;63.77;101332.69;5038711;28;10021;-76
2021/06/05 05:06:39;;;;;;;;;66.75;53.50;;;;;20.15;63.21;101332.94;5044304;28;10296;-76
2021/06/05 05:09:34;;;;;;;;;69.50;58.25;;;;;20.35;62.87;101331.59;5051714;28;10266;-76
2021/06/05 05:12:30;;;;;;;;;71.00;61.25;;;;;20.47;62.98;101330.56;5051895;28;10513;-77
2021/06/05 05:15:26;;;;;;;;;78.25;69.50;;;;;20.31;62.59;101330.72;5051766;28;11224;-76
2021/06/05 05:18:08;;;;;;;;;72.75;56.75;;;;;20.22;61.18;101333.84;5035964;28;12109;-76
2021/06/05 05:21:06;;;;;;;;;68.00;54.75;;;;;20.43;61.87;101332.50;5051695;28;10456;-76
2021/06/05 05:24:02;;;;;;;;;64.75;53.25;;;;;20.60;61.82;101329.13;5038366;28;10346;-76
2021/06/05 05:26:58;;;;;;;;;63.50;50.50;;;;;20.75;62.40;101333.69;5050520;28;9882;-76
2021/06/05 05:29:46;;;;;;;;;56.25;47.00;;;;;20.54;61.62;101323.03;5065854;28;9620;-76
2021/06/05 05:32:41;;;;;;;;;64.25;51.00;;;;;20.65;61.07;101328.78;5051335;28;9686;-76
2021/06/05 05:35:37;;;;;;;;;53.33;45.00;;;;;20.65;60.10;101330.78;5051756;28;9730;-77
2021/06/05 05:38:07;;;;;;;;;53.00;44.33;;;;;20.83;60.29;101320.53;5035675;28;9527;-76
2021/06/05 05:41:09;;;;;;;;;59.00;47.75;;;;;20.95;60.73;101327.91;5051628;28;9109;-77
2021/06/05 05:44:05;;;;;;;;;63.25;52.75;;;;;21.12;61.46;101327.25;5051360;28;9623;-77
2021/06/05 05:46:42;;;;;;;;;69.25;57.75;;;;;21.23;62.00;101324.53;5036501;28;10578;-77
2021/06/05 05:49:37;;;;;;;;;57.33;47.00;;;;;21.30;59.56;101325.41;5036807;28;10392;-76
2021/06/05 05:52:33;;;;;;;;;61.00;49.33;;;;;21.58;59.42;101327.66;5053535;28;9263;-75
2021/06/05 05:55:29;;;;;;;;;61.33;49.67;;;;;21.72;59.50;101323.34;5037422;28;9387;-76
2021/06/05 05:58:03;;;;;;;;;60.00;49.00;;;;;21.81;57.83;101321.78;5060820;28;10210;-76
2021/06/05 06:00:59;;;;;;;;;63.00;50.25;;;;;22.05;57.08;101314.69;5051881;28;9362;-76
2021/06/05 06:03:41;;;;;;;;;57.00;47.33;;;;;22.09;57.26;101321.19;5026660;28;9549;-76
2021/06/05 06:06:37;;;;;;;;;52.25;44.00;;;;;22.21;55.42;101320.03;5061613;28;9326;-76
2021/06/05 06:09:28;;;;;;;;;24.00;24.00;;;;;22.07;56.05;101311.47;5038817;28;8851;-76
2021/06/05 06:12:18;;;;;;;;;17.00;16.50;;;;;22.43;56.52;101318.91;5038021;28;8852;-76
2021/06/05 06:15:24;;;;;;;;;23.50;22.75;;;;;22.51;56.21;101313.28;5052506;28;8885;-76
2021/06/05 06:18:20;;;;;;;;;14.25;13.75;;;;;22.33;56.09;101314.03;5019944;28;8849;-76
2021/06/05 06:21:18;;;;;;;;;35.75;33.25;;;;;22.59;54.85;101310.09;5037509;28;8836;-75
2021/06/05 06:24:15;;;;;;;;;43.75;37.75;;;;;22.85;51.80;101311.81;5036354;28;8974;-77
2021/06/05 06:27:10;;;;;;;;;23.00;20.25;;;;;22.91;51.00;101315.84;5052723;28;9008;-78
2021/06/05 06:30:07;;;;;;;;;23.50;22.75;;;;;22.79;50.00;101315.41;5038032;28;9009;-77
2021/06/05 06:33:06;;;;;;;;;43.50;35.25;;;;;22.91;52.42;101315.84;5052717;28;8831;-76
2021/06/05 06:36:03;;;;;;;;;20.00;19.75;;;;;23.16;54.44;101303.78;5051602;28;8972;-76
2021/06/05 06:38:59;;;;;;;;;31.00;27.25;;;;;23.26;54.91;101305.81;5052211;28;8835;-76
2021/06/05 06:41:54;;;;;;;;;9.60;9.60;;;;;23.36;52.59;101313.44;5045434;28;8836;-74
2021/06/05 06:44:50;;;;;;;;;6.60;6.60;;;;;23.19;51.92;101314.25;5051280;28;8862;-76
2021/06/05 06:47:17;;;;;;;;;8.40;8.40;;;;;23.33;50.46;101314.28;5071163;28;8878;-77
2021/06/05 06:50:11;;;;;;;;;9.00;7.60;;;;;23.39;51.80;101315.47;5075833;28;8841;-77
2021/06/05 06:53:07;;;;;;;;;5.80;5.80;;;;;23.21;46.37;101318.28;5061083;28;9694;-76
2021/06/05 06:55:35;;;;;;;;;8.60;8.60;;;;;23.47;48.56;101314.25;5061212;28;8828;-76
2021/06/05 06:58:31;;;;;;;;;8.20;8.20;;;;;23.36;47.51;101312.66;5054744;28;8851;-76
2021/06/05 07:00:59;;;;;;;;;8.00;8.00;;;;;23.37;47.53;101320.69;5070448;28;8876;-76
2021/06/05 07:03:55;;;;;;;;;6.00;6.00;;;;;23.40;45.73;101319.09;5054305;28;8858;-76
2021/06/05 07:06:50;;;;;;;;;9.60;9.60;;;;;23.61;47.68;101312.66;5054287;28;8852;-77
2021/06/05 07:09:46;;;;;;;;;6.20;6.20;;;;;23.64;44.85;101304.19;5055919;28;9576;-76
2021/06/05 07:12:43;;;;;;;;;7.80;7.80;;;;;23.62;45.93;101305.78;5054202;28;8812;-77
2021/06/05 07:15:39;;;;;;;;;7.00;7.00;;;;;23.62;46.40;101295.31;5054394;28;8920;-77
2021/06/05 07:18:36;;;;;;;;;6.40;6.40;;;;;23.69;47.44;101300.13;5066055;28;8843;-74
2021/06/05 07:21:31;;;;;;;;;7.20;7.20;;;;;23.67;47.85;101299.75;5065640;28;8970;-77
2021/06/05 07:24:13;;;;;;;;;7.40;7.40;;;;;23.72;45.50;101299.34;5054920;28;8851;-75
2021/06/05 07:26:42;;;;;;;;;6.40;6.40;;;;;23.63;44.76;101298.97;5055329;28;8862;-77
2021/06/05 07:29:37;;;;;;;;;8.20;8.20;;;;;23.67;43.71;101292.06;5054195;28;8924;-76
2021/06/05 07:32:33;;;;;;;;;8.00;8.00;;;;;23.60;43.86;101300.56;5065795;28;8877;-76
2021/06/05 07:35:21;;;;;;;;;6.00;6.00;;;;;23.41;42.62;101296.13;5054671;28;8840;-75
2021/06/05 07:38:17;;;;;;;;;6.20;6.20;;;;;23.65;44.07;101296.53;5054477;28;8859;-76
2021/06/05 07:41:13;;;;;;;;;6.80;6.80;;;;;23.62;43.11;101292.50;5066314;28;9641;-76
2021/06/05 07:44:10;;;;;;;;;5.60;5.00;;;;;24.15;42.77;101300.00;5052619;28;8836;-76
2021/06/05 07:46:56;;;;;;;;;4.00;4.00;;;;;24.39;43.55;101293.47;5053720;28;8929;-76
2021/06/05 07:49:30;;;;;;;;;4.00;4.00;;;;;24.27;42.15;101287.44;5055048;28;8917;-76
2021/06/05 07:52:26;;;;;;;;;7.00;7.00;;;;;24.41;42.70;101278.94;5053192;28;8844;-76
2021/06/05 07:55:22;;;;;;;;;8.20;7.00;;;;;24.07;42.22;101281.47;5041623;28;8885;-76
2021/06/05 07:57:51;;;;;;;;;6.00;6.00;;;;;24.71;42.94;101275.53;5053710;28;8840;-76
2021/06/05 08:00:47;;;;;;;;;5.40;5.40;;;;;25.05;41.24;101275.69;5053353;28;9581;-76
2021/06/05 08:03:43;;;;;;;;;8.20;5.00;;;;;25.19;40.21;101274.78;5053841;28;8839;-75
2021/06/05 08:06:38;;;;;;;;;3.80;3.80;;;;;24.94;39.54;101263.66;5053071;28;8875;-76
2021/06/05 08:09:20;;;;;;;;;5.00;5.00;;;;;24.59;38.76;101256.19;5054647;28;8867;-76
2021/06/05 08:11:49;;;;;;;;;5.60;5.60;;;;;24.98;41.45;101266.44;5043062;28;8848;-77
2021/06/05 08:14:45;;;;;;;;;15.60;12.00;;;;;25.03;40.01;101257.50;5057891;28;8833;-73
2021/06/05 08:17:41;;;;;;;;;6.60;6.00;;;;;25.04;38.05;101259.16;5052148;28;8862;-75
2021/06/05 08:20:14;;;;;;;;;4.80;4.80;;;;;24.96;37.62;101258.38;5034755;28;8851;-73
2021/06/05 08:22:42;;;;;;;;;6.20;6.20;;;;;25.34;38.70;101258.47;5056802;28;8837;-76
2021/06/05 08:25:12;;;;;;;;;5.20;4.20;;;;;24.96;36.95;101259.16;5038456;28;8937;-75
2021/06/05 08:28:08;;;;;;;;;6.40;6.40;;;;;25.09;37.89;101256.69;5038857;28;8832;-76
2021/06/05 08:31:08;;;;;;;;;9.60;8.00;;;;;25.29;38.04;101256.09;5039619;28;8843;-77
2021/06/05 08:34:05;;;;;;;;;3.40;3.40;;;;;25.04;37.68;101273.28;5052821;28;8859;-76
2021/06/05 08:36:34;;;;;;;;;3.60;3.60;;;;;25.36;37.67;101265.31;5055031;28;8973;-77
2021/06/05 08:39:31;;;;;;;;;4.80;4.80;;;;;25.52;36.34;101259.09;5071729;28;8837;-76
2021/06/05 08:42:01;;;;;;;;;4.80;4.80;;;;;25.24;36.02;101260.19;5073438;28;8861;-76
2021/06/05 08:44:57;;;;;;;;;5.00;5.00;;;;;25.17;36.67;101263.88;5057158;28;9551;-75
2021/06/05 08:47:54;;;;;;;;;5.80;5.80;;;;;25.34;36.27;101258.47;5044437;28;8867;-76
2021/06/05 08:50:50;;;;;;;;;5.60;5.00;;;;;25.06;38.19;101256.69;5053824;28;8849;-75
2021/06/05 08:53:32;;;;;;;;;3.20;3.20;;;;;25.28;37.75;101258.13;5025385;28;8925;-76
2021/06/05 08:56:02;;;;;;;;;4.80;4.80;;;;;25.57;38.93;101252.19;5034182;28;9995;-76
2021/06/05 08:59:01;;;;;;;;;3.60;3.60;;;;;25.52;37.50;101244.94;5050546;28;8887;-76
2021/06/05 09:01:41;;;;;;;;;5.20;4.60;;;;;25.76;38.77;101243.91;5052059;28;8848;-76
2021/06/05 09:04:16;;;;;;;;;4.80;4.80;;;;;25.71;37.59;101241.53;5055872;28;9515;-77
2021/06/05 09:06:53;;;;;;;;;6.60;5.80;;;;;25.77;37.24;101247.56;5036725;28;8828;-76
2021/06/05 09:09:51;;;;;;;;;3.80;3.80;;;;;25.84;37.55;101244.63;5039254;28;8843;-76
2021/06/05 09:12:33;;;;;;;;;4.80;4.80;;;;;26.09;36.75;101235.81;5051234;28;9624;-76
2021/06/05 09:15:04;;;;;;;;;3.00;3.00;;;;;26.27;36.19;101241.25;5066373;28;8834;-76
2021/06/05 09:17:51;;;;;;;;;2.80;2.80;;;;;26.15;37.29;101239.81;5037305;28;8842;-76
2021/06/05 09:20:37;;;;;;;;;3.60;3.60;;;;;26.24;36.38;101237.25;5073313;28;8856;-75
2021/06/05 09:23:38;;;;;;;;;3.20;3.20;;;;;26.19;36.04;101232.03;5070992;28;8837;-76
2021/06/05 09:26:21;;;;;;;;;4.40;4.40;;;;;26.01;37.20;101228.63;5052401;28;8832;-76
2021/06/05 09:29:21;;;;;;;;;2.20;2.20;;;;;26.32;37.33;101223.78;5051115;28;8825;-76
2021/06/05 09:32:00;;;;;;;;;4.60;4.60;;;;;26.28;37.25;101226.63;5051981;28;8868;-75
2021/06/05 09:34:50;;;;;;;;;3.00;3.00;;;;;26.32;37.20;101223.78;5050438;28;8860;-76
2021/06/05 09:37:49;;;;;;;;;2.80;2.80;;;;;26.26;37.89;101223.44;5033875;28;8962;-77
2021/06/05 09:41:29;;;;;;;;;3.00;3.00;;;;;26.15;37.17;101214.28;5058159;28;8831;-76
2021/06/05 09:44:21;;;;;;;;;4.40;4.40;;;;;26.05;36.25;101212.38;5010623;28;8858;-77
2021/06/05 09:47:16;;;;;;;;;3.00;3.00;;;;;26.32;36.85;101203.91;5035208;28;9561;-76
2021/06/05 09:50:26;;;;;;;;;2.00;2.00;;;;;26.60;36.69;101208.38;5061451;28;8878;-75
2021/06/05 09:53:35;;;;;;;;;2.40;2.40;;;;;26.62;36.34;101205.13;5062103;28;8871;-74
2021/06/05 09:56:35;;;;;;;;;1.40;1.40;;;;;27.36;35.55;101208.72;5063008;28;8908;-76
2021/06/05 09:59:28;;;;;;;;;1.60;1.60;;;;;27.42;36.54;101210.63;5063708;28;8834;-75
2021/06/05 10:02:12;;;;;;;;;2.60;2.60;;;;;26.60;37.60;101200.66;5044964;28;8895;-74
2021/06/05 10:05:10;;;;;;;;;4.00;4.00;;;;;26.51;38.28;101199.59;5062508;28;8854;-75
2021/06/05 10:08:31;;;;;;;;;2.80;2.80;;;;;26.17;36.60;101205.34;5063402;28;9642;-77
2021/06/05 10:11:37;;;;;;;;;4.20;4.20;;;;;26.17;36.42;101202.50;5071424;28;8862;-75
2021/06/05 10:14:51;;;;;;;;;3.40;3.40;;;;;26.07;36.01;101190.09;5056054;28;8849;-75
2021/06/05 10:17:40;;;;;;;;;2.80;2.80;;;;;26.31;37.88;101196.66;5072503;28;8857;-75
2021/06/05 10:20:41;;;;;;;;;3.00;3.00;;;;;25.99;37.60;101191.41;5073630;28;9044;-76
2021/06/05 10:23:43;;;;;;;;;1.40;1.40;;;;;25.83;36.60;101194.84;5047478;28;8841;-76
2021/06/05 10:26:44;;;;;;;;;3.00;3.00;;;;;25.63;36.73;101186.16;5055172;28;8844;-76
2021/06/05 10:29:49;;;;;;;;;4.40;4.40;;;;;25.71;39.07;101178.38;5054975;28;8831;-76
2021/06/05 10:32:51;;;;;;;;;3.80;3.80;;;;;25.77;36.60;101179.56;5060594;28;8933;-75
2021/06/05 10:35:36;;;;;;;;;2.80;2.80;;;;;25.80;36.83;101178.69;5035628;28;8872;-75
2021/06/05 10:38:09;;;;;;;;;3.20;3.20;;;;;25.97;36.84;101189.00;5055946;28;8863;-75
2021/06/05 10:40:37;;;;;;;;;2.20;2.20;;;;;25.92;37.19;101185.84;5046596;28;8820;-76
2021/06/05 10:43:15;;;;;;;;;2.80;2.80;;;;;26.02;37.16;101179.22;5035121;28;8844;-75
2021/06/05 10:45:58;;;;;;;;;4.80;4.80;;;;;25.52;37.33;101172.13;5037978;28;8949;-75
2021/06/05 10:48:43;;;;;;;;;2.40;2.40;;;;;25.48;37.79;101179.06;5052200;28;8859;-76
2021/06/05 10:51:17;;;;;;;;;2.80;2.80;;;;;25.17;39.99;101167.66;5053993;28;8832;-74
2021/06/05 10:54:20;;;;;;;;;2.20;2.20;;;;;25.29;40.83;101174.00;5050204;28;8847;-77
2021/06/05 10:57:08;;;;;;;;;2.80;2.80;;;;;25.03;41.00;101173.47;5053975;28;8868;-76
2021/06/05 10:59:52;;;;;;;;;3.80;3.80;;;;;25.20;40.54;101172.47;5055425;28;8851;-76
2021/06/05 11:02:46;;;;;;;;;3.20;3.20;;;;;25.07;40.75;101171.38;5036873;28;8871;-76
2021/06/05 11:05:24;;;;;;;;;3.80;3.80;;;;;25.29;42.76;101166.31;5034839;28;8844;-76
2021/06/05 11:08:28;;;;;;;;;3.20;3.20;;;;;25.81;40.12;101165.34;5049560;28;8840;-76
2021/06/05 11:11:01;;;;;;;;;3.20;3.20;;;;;25.91;41.35;101165.19;5034280;28;8954;-77
2021/06/05 11:13:35;;;;;;;;;3.20;3.20;;;;;26.09;39.66;101169.84;5050458;28;8947;-75
2021/06/05 11:16:59;;;;;;;;;2.80;2.80;;;;;26.31;39.16;101162.63;5050797;28;8847;-74
2021/06/05 11:20:10;;;;;;;;;4.80;4.80;;;;;26.58;38.32;101157.75;5007710;28;8864;-77
2021/06/05 11:22:50;;;;;;;;;2.20;2.20;;;;;27.23;37.71;101153.84;5043481;28;8832;-75
2021/06/05 11:25:24;;;;;;;;;1.60;1.60;;;;;26.95;36.93;101166.47;5050890;28;8962;-74
2021/06/05 11:28:26;;;;;;;;;3.80;3.80;;;;;27.24;36.78;101150.56;5050620;28;8862;-75
2021/06/05 11:30:55;;;;;;;;;7.60;6.20;;;;;27.60;36.38;101155.50;5048987;28;8866;-76
2021/06/05 11:33:44;;;;;;;;;2.00;2.00;;;;;27.40;36.43;101156.31;5050521;28;8856;-76
2021/06/05 11:36:43;;;;;;;;;2.60;2.60;;;;;26.37;36.45;101163.72;5049484;28;8840;-73
2021/06/05 11:39:22;;;;;;;;;5.40;4.60;;;;;26.08;38.34;101166.19;5035734;28;8848;-74
2021/06/05 11:41:57;;;;;;;;;1.80;1.80;;;;;25.83;38.38;101174.22;5051595;28;8919;-75
2021/06/05 11:44:39;;;;;;;;;3.20;3.20;;;;;25.92;38.65;101172.50;5052698;28;8840;-75
2021/06/05 11:47:35;;;;;;;;;4.60;4.60;;;;;25.94;39.17;101172.06;5023687;28;8883;-75
2021/06/05 11:50:19;;;;;;;;;3.80;3.80;;;;;25.85;37.76;101168.94;5060611;28;8833;-75
2021/06/05 11:53:18;;;;;;;;;3.20;3.20;;;;;25.77;40.14;101163.38;5049878;28;8836;-75
2021/06/05 11:55:55;;;;;;;;;2.80;2.80;;;;;25.95;38.47;101168.00;5011631;28;9076;-75
2021/06/05 11:58:34;;;;;;;;;4.00;4.00;;;;;25.91;39.98;101159.53;5050804;28;8852;-75
2021/06/05 12:01:14;;;;;;;;;3.60;3.60;;;;;25.87;41.62;101155.94;5048196;28;8903;-75
2021/06/05 12:03:47;;;;;;;;;4.20;4.20;;;;;25.68;39.19;101163.03;5051271;28;8847;-74
2021/06/05 12:06:45;;;;;;;;;2.80;2.80;;;;;25.57;41.28;101156.69;5030969;28;176832;-75
2021/06/05 12:09:27;;;;;;;;;5.80;3.80;;;;;25.53;40.57;101161.59;5051708;28;8856;-74
2021/06/05 12:11:56;;;;;;;;;6.60;5.40;;;;;25.74;39.84;101155.69;5052663;28;8844;-75
2021/06/05 12:14:59;;;;;;;;;2.80;2.80;;;;;25.95;37.94;101160.28;5051533;28;9010;-75
2021/06/05 12:17:41;;;;;;;;;3.00;3.00;;;;;25.87;38.90;101163.66;5051121;28;8863;-75
2021/06/05 12:20:23;;;;;;;;;4.80;4.80;;;;;25.76;38.79;101164.59;5051610;28;8852;-75
2021/06/05 12:22:54;;;;;;;;;3.20;3.20;;;;;25.92;38.91;101157.53;5033900;28;8862;-77
2021/06/05 12:25:44;;;;;;;;;6.60;3.60;;;;;26.18;38.29;101158.75;5051879;28;8848;-76
2021/06/05 12:28:16;;;;;;;;;4.00;4.00;;;;;26.28;39.00;101164.25;5052515;28;8836;-76
2021/06/05 12:30:49;;;;;;;;;3.60;3.60;;;;;25.88;39.64;101162.41;5047268;28;8868;-75
2021/06/05 12:33:34;;;;;;;;;3.60;3.60;;;;;25.99;39.67;101161.06;5052198;28;8859;-74
2021/06/05 12:36:46;;;;;;;;;3.60;3.60;;;;;25.72;40.08;101157.34;5034719;28;8832;-74
2021/06/05 12:39:26;;;;;;;;;3.00;3.00;;;;;25.65;39.87;101154.59;5031571;28;8883;-73
2021/06/05 12:41:55;;;;;;;;;4.40;4.40;;;;;25.48;40.10;101153.56;5047683;28;9628;-75
2021/06/05 12:44:29;;;;;;;;;4.60;4.60;;;;;25.60;40.78;101155.03;5053451;28;8848;-74
2021/06/05 12:46:59;;;;;;;;;3.40;3.40;;;;;25.63;40.80;101152.19;5052066;28;8828;-73
2021/06/05 12:49:44;;;;;;;;;4.80;4.80;;;;;25.63;40.96;101149.34;5035778;28;9092;-74
2021/06/05 12:52:29;;;;;;;;;6.00;5.60;;;;;25.92;41.26;101151.84;5052606;28;8945;-76
2021/06/05 12:55:24;;;;;;;;;3.60;3.60;;;;;25.75;40.87;101145.97;5057924;28;8818;-77
2021/06/05 12:58:10;;;;;;;;;3.00;3.00;;;;;25.84;39.65;101148.31;5073364;28;8837;-77
2021/06/05 13:01:25;;;;;;;;;4.20;4.20;;;;;26.17;40.19;101146.63;5058952;28;8880;-76
2021/06/05 13:04:33;;;;;;;;;4.00;4.00;;;;;26.63;38.49;101144.31;5069885;28;8822;-76
2021/06/05 13:07:37;;;;;;;;;3.00;3.00;;;;;27.48;38.87;101136.28;5050938;28;8839;-76
2021/06/05 13:10:25;;;;;;;;;2.40;2.40;;;;;27.52;37.51;101142.69;5032702;28;8870;-75
2021/06/05 13:13:32;;;;;;;;;2.60;2.60;;;;;27.77;36.11;101140.19;5018490;28;9709;-75
2021/06/05 13:16:09;;;;;;;;;3.80;3.80;;;;;27.66;35.90;101148.09;5032933;28;8830;-75
2021/06/05 13:19:14;;;;;;;;;3.00;3.00;;;;;27.80;35.63;101138.50;5018336;28;8846;-74
2021/06/05 13:21:43;;;;;;;;;0.20;0.20;;;;;28.11;36.23;101141.84;5031895;28;8846;-75